sensor_id;sensor_type;location;lat;lon;timestamp;P1;durP1;ratioP1;P2;durP2;ratioP2
56171;SDS011;42052;41.634;-0.946;2023-04-08T00:02:39;0.85;;;0.80;;
56171;SDS011;42052;41.634;-0.946;2023-04-08T00:05:26;1.20;;;0.90;;
56171;SDS011;42052;41.634;-0.946;2023-04-08T00:08:12;1.23;;;0.90;;
56171;SDS011;42052;41.634;-0.946;2023-04-08T00:10:58;1.27;;;0.98;;
56171;SDS011;42052;41.634;-0.946;2023-04-08T00:13:45;1.55;;;1.02;;
56171;SDS011;42052;41.634;-0.946;2023-04-08T00:16:31;1.27;;;0.98;;
56171;SDS011;42052;41.634;-0.946;2023-04-08T00:19:17;1.45;;;1.10;;
56171;SDS011;42052;41.634;-0.946;2023-04-08T00:22:03;1.38;;;0.93;;
56171;SDS011;42052;41.634;-0.946;2023-04-08T00:24:49;1.10;;;1.00;;
56171;SDS011;42052;41.634;-0.946;2023-04-08T00:27:35;2.15;;;0.75;;
56171;SDS011;42052;41.634;-0.946;2023-04-08T00:30:21;1.00;;;0.88;;
56171;SDS011;42052;41.634;-0.946;2023-04-08T00:33:07;2.63;;;0.90;;
56171;SDS011;42052;41.634;-0.946;2023-04-08T00:35:54;2.53;;;0.90;;
56171;SDS011;42052;41.634;-0.946;2023-04-08T00:38:40;2.70;;;1.00;;
56171;SDS011;42052;41.634;-0.946;2023-04-08T00:41:27;6.45;;;1.08;;
56171;SDS011;42052;41.634;-0.946;2023-04-08T00:44:13;1.80;;;0.90;;
56171;SDS011;42052;41.634;-0.946;2023-04-08T00:46:59;3.13;;;1.00;;
56171;SDS011;42052;41.634;-0.946;2023-04-08T00:49:45;3.75;;;0.90;;
56171;SDS011;42052;41.634;-0.946;2023-04-08T00:52:31;1.20;;;0.80;;
56171;SDS011;42052;41.634;-0.946;2023-04-08T00:55:19;1.13;;;0.90;;
56171;SDS011;42052;41.634;-0.946;2023-04-08T00:58:05;1.13;;;0.90;;
56171;SDS011;42052;41.634;-0.946;2023-04-08T01:00:54;2.10;;;1.15;;
56171;SDS011;42052;41.634;-0.946;2023-04-08T01:03:58;1.20;;;1.10;;
56171;SDS011;42052;41.634;-0.946;2023-04-08T01:06:56;2.30;;;0.90;;
56171;SDS011;42052;41.634;-0.946;2023-04-08T01:09:55;1.33;;;0.95;;
56171;SDS011;42052;41.634;-0.946;2023-04-08T01:12:51;2.22;;;0.95;;
56171;SDS011;42052;41.634;-0.946;2023-04-08T01:15:42;1.73;;;1.10;;
56171;SDS011;42052;41.634;-0.946;2023-04-08T01:18:29;1.10;;;0.95;;
56171;SDS011;42052;41.634;-0.946;2023-04-08T01:21:19;1.50;;;0.90;;
56171;SDS011;42052;41.634;-0.946;2023-04-08T01:24:08;1.48;;;0.90;;
56171;SDS011;42052;41.634;-0.946;2023-04-08T01:27:11;1.60;;;0.90;;
56171;SDS011;42052;41.634;-0.946;2023-04-08T01:29:59;2.10;;;0.90;;
56171;SDS011;42052;41.634;-0.946;2023-04-08T01:32:47;1.25;;;0.80;;
56171;SDS011;42052;41.634;-0.946;2023-04-08T01:35:36;1.13;;;0.90;;
56171;SDS011;42052;41.634;-0.946;2023-04-08T01:38:23;1.98;;;0.98;;
56171;SDS011;42052;41.634;-0.946;2023-04-08T01:41:11;1.98;;;1.10;;
56171;SDS011;42052;41.634;-0.946;2023-04-08T01:43:57;1.45;;;0.80;;
56171;SDS011;42052;41.634;-0.946;2023-04-08T01:46:44;1.02;;;0.80;;
56171;SDS011;42052;41.634;-0.946;2023-04-08T01:49:32;1.30;;;0.80;;
56171;SDS011;42052;41.634;-0.946;2023-04-08T01:52:19;1.05;;;0.80;;
56171;SDS011;42052;41.634;-0.946;2023-04-08T01:55:07;1.70;;;0.90;;
56171;SDS011;42052;41.634;-0.946;2023-04-08T01:57:53;1.38;;;0.90;;
56171;SDS011;42052;41.634;-0.946;2023-04-08T02:00:43;1.63;;;0.85;;
56171;SDS011;42052;41.634;-0.946;2023-04-08T02:03:31;1.67;;;0.80;;
56171;SDS011;42052;41.634;-0.946;2023-04-08T02:06:20;1.27;;;0.90;;
56171;SDS011;42052;41.634;-0.946;2023-04-08T02:09:06;3.10;;;1.00;;
56171;SDS011;42052;41.634;-0.946;2023-04-08T02:11:52;1.13;;;0.80;;
56171;SDS011;42052;41.634;-0.946;2023-04-08T02:14:39;1.50;;;0.88;;
56171;SDS011;42052;41.634;-0.946;2023-04-08T02:17:44;2.72;;;0.77;;
56171;SDS011;42052;41.634;-0.946;2023-04-08T02:20:41;1.02;;;0.90;;
56171;SDS011;42052;41.634;-0.946;2023-04-08T02:23:29;2.30;;;1.00;;
56171;SDS011;42052;41.634;-0.946;2023-04-08T02:26:20;1.95;;;0.95;;
56171;SDS011;42052;41.634;-0.946;2023-04-08T02:29:09;1.00;;;0.80;;
56171;SDS011;42052;41.634;-0.946;2023-04-08T02:31:57;1.00;;;0.70;;
56171;SDS011;42052;41.634;-0.946;2023-04-08T02:34:46;1.90;;;0.80;;
56171;SDS011;42052;41.634;-0.946;2023-04-08T02:37:33;0.95;;;0.80;;
56171;SDS011;42052;41.634;-0.946;2023-04-08T02:40:23;3.90;;;0.95;;
56171;SDS011;42052;41.634;-0.946;2023-04-08T02:43:11;1.58;;;0.98;;
56171;SDS011;42052;41.634;-0.946;2023-04-08T02:45:57;0.82;;;0.70;;
56171;SDS011;42052;41.634;-0.946;2023-04-08T02:48:45;1.60;;;0.88;;
56171;SDS011;42052;41.634;-0.946;2023-04-08T02:51:31;1.70;;;0.98;;
56171;SDS011;42052;41.634;-0.946;2023-04-08T02:54:17;1.92;;;0.80;;
56171;SDS011;42052;41.634;-0.946;2023-04-08T02:57:04;1.35;;;0.80;;
56171;SDS011;42052;41.634;-0.946;2023-04-08T02:59:50;1.13;;;0.80;;
56171;SDS011;42052;41.634;-0.946;2023-04-08T03:02:36;1.40;;;1.00;;
56171;SDS011;42052;41.634;-0.946;2023-04-08T03:05:22;1.13;;;0.90;;
56171;SDS011;42052;41.634;-0.946;2023-04-08T03:08:08;1.80;;;0.70;;
56171;SDS011;42052;41.634;-0.946;2023-04-08T03:10:54;0.98;;;0.70;;
56171;SDS011;42052;41.634;-0.946;2023-04-08T03:13:40;2.13;;;1.02;;
56171;SDS011;42052;41.634;-0.946;2023-04-08T03:16:26;0.70;;;0.70;;
56171;SDS011;42052;41.634;-0.946;2023-04-08T03:19:13;1.27;;;0.82;;
56171;SDS011;42052;41.634;-0.946;2023-04-08T03:21:59;1.67;;;0.82;;
56171;SDS011;42052;41.634;-0.946;2023-04-08T03:24:45;1.10;;;0.77;;
56171;SDS011;42052;41.634;-0.946;2023-04-08T03:27:31;1.67;;;0.70;;
56171;SDS011;42052;41.634;-0.946;2023-04-08T03:30:17;1.17;;;0.75;;
56171;SDS011;42052;41.634;-0.946;2023-04-08T03:33:03;1.25;;;0.88;;
56171;SDS011;42052;41.634;-0.946;2023-04-08T03:35:55;0.93;;;0.80;;
56171;SDS011;42052;41.634;-0.946;2023-04-08T03:38:41;1.35;;;1.00;;
56171;SDS011;42052;41.634;-0.946;2023-04-08T03:41:28;1.13;;;0.60;;
56171;SDS011;42052;41.634;-0.946;2023-04-08T03:44:15;1.08;;;0.80;;
56171;SDS011;42052;41.634;-0.946;2023-04-08T03:47:01;1.13;;;0.85;;
56171;SDS011;42052;41.634;-0.946;2023-04-08T03:49:47;1.10;;;0.80;;
56171;SDS011;42052;41.634;-0.946;2023-04-08T03:52:33;1.83;;;1.00;;
56171;SDS011;42052;41.634;-0.946;2023-04-08T03:55:19;0.82;;;0.80;;
56171;SDS011;42052;41.634;-0.946;2023-04-08T03:58:05;1.20;;;0.80;;
56171;SDS011;42052;41.634;-0.946;2023-04-08T04:00:51;1.00;;;0.88;;
56171;SDS011;42052;41.634;-0.946;2023-04-08T04:03:38;1.20;;;0.93;;
56171;SDS011;42052;41.634;-0.946;2023-04-08T04:06:24;1.52;;;0.93;;
56171;SDS011;42052;41.634;-0.946;2023-04-08T04:09:11;1.00;;;0.80;;
56171;SDS011;42052;41.634;-0.946;2023-04-08T04:11:57;1.88;;;0.95;;
56171;SDS011;42052;41.634;-0.946;2023-04-08T04:14:43;1.20;;;0.80;;
56171;SDS011;42052;41.634;-0.946;2023-04-08T04:17:29;1.00;;;0.90;;
56171;SDS011;42052;41.634;-0.946;2023-04-08T04:20:16;0.88;;;0.80;;
56171;SDS011;42052;41.634;-0.946;2023-04-08T04:23:02;0.98;;;0.80;;
56171;SDS011;42052;41.634;-0.946;2023-04-08T04:25:49;1.10;;;0.80;;
56171;SDS011;42052;41.634;-0.946;2023-04-08T04:28:35;1.65;;;1.00;;
56171;SDS011;42052;41.634;-0.946;2023-04-08T04:31:23;0.98;;;0.80;;
56171;SDS011;42052;41.634;-0.946;2023-04-08T04:34:12;1.20;;;0.90;;
56171;SDS011;42052;41.634;-0.946;2023-04-08T04:36:58;1.40;;;1.08;;
56171;SDS011;42052;41.634;-0.946;2023-04-08T04:39:45;1.20;;;1.00;;
56171;SDS011;42052;41.634;-0.946;2023-04-08T04:42:31;1.70;;;0.93;;
56171;SDS011;42052;41.634;-0.946;2023-04-08T04:45:17;1.67;;;0.98;;
56171;SDS011;42052;41.634;-0.946;2023-04-08T04:48:03;1.45;;;1.00;;
56171;SDS011;42052;41.634;-0.946;2023-04-08T04:50:53;1.00;;;0.90;;
56171;SDS011;42052;41.634;-0.946;2023-04-08T04:53:40;1.65;;;0.85;;
56171;SDS011;42052;41.634;-0.946;2023-04-08T04:56:26;1.75;;;1.10;;
56171;SDS011;42052;41.634;-0.946;2023-04-08T04:59:12;1.55;;;1.08;;
56171;SDS011;42052;41.634;-0.946;2023-04-08T05:01:59;3.05;;;1.10;;
56171;SDS011;42052;41.634;-0.946;2023-04-08T05:04:45;1.52;;;1.00;;
56171;SDS011;42052;41.634;-0.946;2023-04-08T05:07:34;1.63;;;0.90;;
56171;SDS011;42052;41.634;-0.946;2023-04-08T05:10:21;0.70;;;0.70;;
56171;SDS011;42052;41.634;-0.946;2023-04-08T05:13:09;1.40;;;0.90;;
56171;SDS011;42052;41.634;-0.946;2023-04-08T05:15:56;1.77;;;0.80;;
56171;SDS011;42052;41.634;-0.946;2023-04-08T05:18:42;1.40;;;1.00;;
56171;SDS011;42052;41.634;-0.946;2023-04-08T05:21:28;1.58;;;0.93;;
56171;SDS011;42052;41.634;-0.946;2023-04-08T05:24:15;1.40;;;0.93;;
56171;SDS011;42052;41.634;-0.946;2023-04-08T05:27:01;1.10;;;1.00;;
56171;SDS011;42052;41.634;-0.946;2023-04-08T05:29:47;1.48;;;0.88;;
56171;SDS011;42052;41.634;-0.946;2023-04-08T05:32:33;1.73;;;1.00;;
56171;SDS011;42052;41.634;-0.946;2023-04-08T05:35:20;1.85;;;1.10;;
56171;SDS011;42052;41.634;-0.946;2023-04-08T05:38:06;1.17;;;0.95;;
56171;SDS011;42052;41.634;-0.946;2023-04-08T05:40:52;2.08;;;0.80;;
56171;SDS011;42052;41.634;-0.946;2023-04-08T05:43:39;4.05;;;1.05;;
56171;SDS011;42052;41.634;-0.946;2023-04-08T05:46:25;1.30;;;1.00;;
56171;SDS011;42052;41.634;-0.946;2023-04-08T05:49:11;2.20;;;1.00;;
56171;SDS011;42052;41.634;-0.946;2023-04-08T05:51:58;1.73;;;1.10;;
56171;SDS011;42052;41.634;-0.946;2023-04-08T05:54:44;1.60;;;0.90;;
56171;SDS011;42052;41.634;-0.946;2023-04-08T05:57:30;0.95;;;0.70;;
56171;SDS011;42052;41.634;-0.946;2023-04-08T06:00:16;2.13;;;0.90;;
56171;SDS011;42052;41.634;-0.946;2023-04-08T06:03:05;2.65;;;1.10;;
56171;SDS011;42052;41.634;-0.946;2023-04-08T06:05:51;2.15;;;1.13;;
56171;SDS011;42052;41.634;-0.946;2023-04-08T06:08:37;1.55;;;0.90;;
56171;SDS011;42052;41.634;-0.946;2023-04-08T06:11:23;1.40;;;1.05;;
56171;SDS011;42052;41.634;-0.946;2023-04-08T06:14:09;1.85;;;0.90;;
56171;SDS011;42052;41.634;-0.946;2023-04-08T06:16:55;1.45;;;0.90;;
56171;SDS011;42052;41.634;-0.946;2023-04-08T06:19:42;1.58;;;1.00;;
56171;SDS011;42052;41.634;-0.946;2023-04-08T06:22:28;2.20;;;1.00;;
56171;SDS011;42052;41.634;-0.946;2023-04-08T06:25:14;1.33;;;0.82;;
56171;SDS011;42052;41.634;-0.946;2023-04-08T06:28:01;1.70;;;1.00;;
56171;SDS011;42052;41.634;-0.946;2023-04-08T06:30:47;4.65;;;1.00;;
56171;SDS011;42052;41.634;-0.946;2023-04-08T06:33:33;1.00;;;0.90;;
56171;SDS011;42052;41.634;-0.946;2023-04-08T06:36:19;1.63;;;0.82;;
56171;SDS011;42052;41.634;-0.946;2023-04-08T06:39:06;1.15;;;0.90;;
56171;SDS011;42052;41.634;-0.946;2023-04-08T06:41:52;1.60;;;1.00;;
56171;SDS011;42052;41.634;-0.946;2023-04-08T06:44:39;1.75;;;1.17;;
56171;SDS011;42052;41.634;-0.946;2023-04-08T06:47:25;1.40;;;1.00;;
56171;SDS011;42052;41.634;-0.946;2023-04-08T06:50:14;1.35;;;0.80;;
56171;SDS011;42052;41.634;-0.946;2023-04-08T06:53:00;1.17;;;1.00;;
56171;SDS011;42052;41.634;-0.946;2023-04-08T06:55:46;1.25;;;0.90;;
56171;SDS011;42052;41.634;-0.946;2023-04-08T06:58:33;3.15;;;1.02;;
56171;SDS011;42052;41.634;-0.946;2023-04-08T07:01:19;1.63;;;1.10;;
56171;SDS011;42052;41.634;-0.946;2023-04-08T07:04:05;1.27;;;1.00;;
56171;SDS011;42052;41.634;-0.946;2023-04-08T07:06:51;1.50;;;0.90;;
56171;SDS011;42052;41.634;-0.946;2023-04-08T07:09:37;5.30;;;1.60;;
56171;SDS011;42052;41.634;-0.946;2023-04-08T07:12:25;16.98;;;3.35;;
56171;SDS011;42052;41.634;-0.946;2023-04-08T07:15:11;16.60;;;3.95;;
56171;SDS011;42052;41.634;-0.946;2023-04-08T07:17:57;13.57;;;3.80;;
56171;SDS011;42052;41.634;-0.946;2023-04-08T07:20:44;19.65;;;3.95;;
56171;SDS011;42052;41.634;-0.946;2023-04-08T07:23:35;28.10;;;4.63;;
56171;SDS011;42052;41.634;-0.946;2023-04-08T07:26:21;19.15;;;4.10;;
56171;SDS011;42052;41.634;-0.946;2023-04-08T07:29:07;18.15;;;4.47;;
56171;SDS011;42052;41.634;-0.946;2023-04-08T07:31:53;22.23;;;4.45;;
56171;SDS011;42052;41.634;-0.946;2023-04-08T07:34:40;18.65;;;4.43;;
56171;SDS011;42052;41.634;-0.946;2023-04-08T07:37:26;17.30;;;4.13;;
56171;SDS011;42052;41.634;-0.946;2023-04-08T07:40:12;13.82;;;4.00;;
56171;SDS011;42052;41.634;-0.946;2023-04-08T07:42:58;13.63;;;3.75;;
56171;SDS011;42052;41.634;-0.946;2023-04-08T07:45:45;15.23;;;3.58;;
56171;SDS011;42052;41.634;-0.946;2023-04-08T07:48:31;17.65;;;3.55;;
56171;SDS011;42052;41.634;-0.946;2023-04-08T07:51:18;12.80;;;3.17;;
56171;SDS011;42052;41.634;-0.946;2023-04-08T07:54:04;15.10;;;3.53;;
56171;SDS011;42052;41.634;-0.946;2023-04-08T07:56:51;10.02;;;3.22;;
56171;SDS011;42052;41.634;-0.946;2023-04-08T07:59:37;9.32;;;3.35;;
56171;SDS011;42052;41.634;-0.946;2023-04-08T08:02:23;11.13;;;3.35;;
56171;SDS011;42052;41.634;-0.946;2023-04-08T08:05:09;10.27;;;2.95;;
56171;SDS011;42052;41.634;-0.946;2023-04-08T08:07:55;8.52;;;2.83;;
56171;SDS011;42052;41.634;-0.946;2023-04-08T08:10:42;8.90;;;2.95;;
56171;SDS011;42052;41.634;-0.946;2023-04-08T08:13:28;11.35;;;3.20;;
56171;SDS011;42052;41.634;-0.946;2023-04-08T08:16:14;10.05;;;3.17;;
56171;SDS011;42052;41.634;-0.946;2023-04-08T08:19:00;9.10;;;2.90;;
56171;SDS011;42052;41.634;-0.946;2023-04-08T08:21:47;13.75;;;2.72;;
56171;SDS011;42052;41.634;-0.946;2023-04-08T08:24:33;9.00;;;2.60;;
56171;SDS011;42052;41.634;-0.946;2023-04-08T08:27:19;9.68;;;2.75;;
56171;SDS011;42052;41.634;-0.946;2023-04-08T08:30:07;10.68;;;3.03;;
56171;SDS011;42052;41.634;-0.946;2023-04-08T08:32:54;10.27;;;3.00;;
56171;SDS011;42052;41.634;-0.946;2023-04-08T08:35:43;10.27;;;2.72;;
56171;SDS011;42052;41.634;-0.946;2023-04-08T08:38:29;11.48;;;2.70;;
56171;SDS011;42052;41.634;-0.946;2023-04-08T08:41:15;9.10;;;2.70;;
56171;SDS011;42052;41.634;-0.946;2023-04-08T08:44:04;9.30;;;2.88;;
56171;SDS011;42052;41.634;-0.946;2023-04-08T08:46:51;11.05;;;2.85;;
56171;SDS011;42052;41.634;-0.946;2023-04-08T08:49:38;8.60;;;2.50;;
56171;SDS011;42052;41.634;-0.946;2023-04-08T08:52:24;9.93;;;2.70;;
56171;SDS011;42052;41.634;-0.946;2023-04-08T08:55:10;7.68;;;2.90;;
56171;SDS011;42052;41.634;-0.946;2023-04-08T08:57:57;6.65;;;2.50;;
56171;SDS011;42052;41.634;-0.946;2023-04-08T09:00:43;12.05;;;2.58;;
56171;SDS011;42052;41.634;-0.946;2023-04-08T09:03:30;9.00;;;2.58;;
56171;SDS011;42052;41.634;-0.946;2023-04-08T09:06:16;6.65;;;2.60;;
56171;SDS011;42052;41.634;-0.946;2023-04-08T09:09:03;8.65;;;2.47;;
56171;SDS011;42052;41.634;-0.946;2023-04-08T09:12:02;6.57;;;2.63;;
56171;SDS011;42052;41.634;-0.946;2023-04-08T09:14:51;7.68;;;2.90;;
56171;SDS011;42052;41.634;-0.946;2023-04-08T09:17:50;5.82;;;2.50;;
56171;SDS011;42052;41.634;-0.946;2023-04-08T09:20:37;6.10;;;2.40;;
56171;SDS011;42052;41.634;-0.946;2023-04-08T09:23:41;7.35;;;2.53;;
56171;SDS011;42052;41.634;-0.946;2023-04-08T09:26:29;4.97;;;2.05;;
56171;SDS011;42052;41.634;-0.946;2023-04-08T09:29:15;4.78;;;2.03;;
56171;SDS011;42052;41.634;-0.946;2023-04-08T09:32:01;6.47;;;2.33;;
56171;SDS011;42052;41.634;-0.946;2023-04-08T09:34:47;4.93;;;2.13;;
56171;SDS011;42052;41.634;-0.946;2023-04-08T09:37:34;6.72;;;2.45;;
56171;SDS011;42052;41.634;-0.946;2023-04-08T09:40:20;8.10;;;2.40;;
56171;SDS011;42052;41.634;-0.946;2023-04-08T09:43:09;5.78;;;2.20;;
56171;SDS011;42052;41.634;-0.946;2023-04-08T09:45:57;6.93;;;2.50;;
56171;SDS011;42052;41.634;-0.946;2023-04-08T09:48:49;7.07;;;2.50;;
56171;SDS011;42052;41.634;-0.946;2023-04-08T09:51:58;5.95;;;2.55;;
56171;SDS011;42052;41.634;-0.946;2023-04-08T09:57:54;5.80;;;2.22;;
56171;SDS011;42052;41.634;-0.946;2023-04-08T10:00:46;6.43;;;2.30;;
56171;SDS011;42052;41.634;-0.946;2023-04-08T10:03:39;7.07;;;2.47;;
56171;SDS011;42052;41.634;-0.946;2023-04-08T10:06:30;6.55;;;2.45;;
56171;SDS011;42052;41.634;-0.946;2023-04-08T10:09:21;5.47;;;2.30;;
56171;SDS011;42052;41.634;-0.946;2023-04-08T10:12:08;5.80;;;2.30;;
56171;SDS011;42052;41.634;-0.946;2023-04-08T10:20:59;3.33;;;2.00;;
56171;SDS011;42052;41.634;-0.946;2023-04-08T10:23:52;5.72;;;2.25;;
56171;SDS011;42052;41.634;-0.946;2023-04-08T10:26:41;6.63;;;2.30;;
56171;SDS011;42052;41.634;-0.946;2023-04-08T10:29:29;4.90;;;2.00;;
56171;SDS011;42052;41.634;-0.946;2023-04-08T10:32:39;5.18;;;1.90;;
56171;SDS011;42052;41.634;-0.946;2023-04-08T10:35:28;4.55;;;1.85;;
56171;SDS011;42052;41.634;-0.946;2023-04-08T10:38:19;5.13;;;1.83;;
56171;SDS011;42052;41.634;-0.946;2023-04-08T10:41:06;4.65;;;2.25;;
56171;SDS011;42052;41.634;-0.946;2023-04-08T10:43:58;4.50;;;2.17;;
56171;SDS011;42052;41.634;-0.946;2023-04-08T10:46:49;5.85;;;1.90;;
56171;SDS011;42052;41.634;-0.946;2023-04-08T10:49:35;3.80;;;1.90;;
56171;SDS011;42052;41.634;-0.946;2023-04-08T10:52:22;4.75;;;1.95;;
56171;SDS011;42052;41.634;-0.946;2023-04-08T10:55:08;4.10;;;1.92;;
56171;SDS011;42052;41.634;-0.946;2023-04-08T10:57:54;4.70;;;1.85;;
56171;SDS011;42052;41.634;-0.946;2023-04-08T11:00:41;4.35;;;1.80;;
56171;SDS011;42052;41.634;-0.946;2023-04-08T11:03:27;4.70;;;1.60;;
56171;SDS011;42052;41.634;-0.946;2023-04-08T11:06:13;4.30;;;2.00;;
56171;SDS011;42052;41.634;-0.946;2023-04-08T11:09:01;5.70;;;1.80;;
56171;SDS011;42052;41.634;-0.946;2023-04-08T11:11:48;3.15;;;1.98;;
56171;SDS011;42052;41.634;-0.946;2023-04-08T11:14:37;6.85;;;2.00;;
56171;SDS011;42052;41.634;-0.946;2023-04-08T11:17:25;4.43;;;2.00;;
56171;SDS011;42052;41.634;-0.946;2023-04-08T11:20:11;3.83;;;1.60;;
56171;SDS011;42052;41.634;-0.946;2023-04-08T11:22:59;3.83;;;1.92;;
56171;SDS011;42052;41.634;-0.946;2023-04-08T11:25:45;4.63;;;1.80;;
56171;SDS011;42052;41.634;-0.946;2023-04-08T11:28:33;4.40;;;1.80;;
56171;SDS011;42052;41.634;-0.946;2023-04-08T11:31:20;5.22;;;1.80;;
56171;SDS011;42052;41.634;-0.946;2023-04-08T11:34:07;5.65;;;1.63;;
56171;SDS011;42052;41.634;-0.946;2023-04-08T11:36:55;3.60;;;1.90;;
56171;SDS011;42052;41.634;-0.946;2023-04-08T11:39:43;3.60;;;1.77;;
56171;SDS011;42052;41.634;-0.946;2023-04-08T11:42:30;3.92;;;1.80;;
56171;SDS011;42052;41.634;-0.946;2023-04-08T11:45:18;3.78;;;1.80;;
56171;SDS011;42052;41.634;-0.946;2023-04-08T11:48:11;4.13;;;1.98;;
56171;SDS011;42052;41.634;-0.946;2023-04-08T11:51:02;3.40;;;1.70;;
56171;SDS011;42052;41.634;-0.946;2023-04-08T11:53:49;4.68;;;1.63;;
56171;SDS011;42052;41.634;-0.946;2023-04-08T11:56:45;4.05;;;1.75;;
56171;SDS011;42052;41.634;-0.946;2023-04-08T11:59:31;3.45;;;1.80;;
56171;SDS011;42052;41.634;-0.946;2023-04-08T12:02:17;3.58;;;1.67;;
56171;SDS011;42052;41.634;-0.946;2023-04-08T12:05:04;4.90;;;1.70;;
56171;SDS011;42052;41.634;-0.946;2023-04-08T12:07:51;3.70;;;1.95;;
56171;SDS011;42052;41.634;-0.946;2023-04-08T12:10:37;5.25;;;1.70;;
56171;SDS011;42052;41.634;-0.946;2023-04-08T12:13:23;4.97;;;1.70;;
56171;SDS011;42052;41.634;-0.946;2023-04-08T12:16:09;3.38;;;1.63;;
56171;SDS011;42052;41.634;-0.946;2023-04-08T12:18:56;4.65;;;1.88;;
56171;SDS011;42052;41.634;-0.946;2023-04-08T12:21:43;3.30;;;1.67;;
56171;SDS011;42052;41.634;-0.946;2023-04-08T12:24:29;3.58;;;1.65;;
56171;SDS011;42052;41.634;-0.946;2023-04-08T12:27:15;2.72;;;1.55;;
56171;SDS011;42052;41.634;-0.946;2023-04-08T12:30:01;2.78;;;1.52;;
56171;SDS011;42052;41.634;-0.946;2023-04-08T12:32:48;3.50;;;1.70;;
56171;SDS011;42052;41.634;-0.946;2023-04-08T12:35:34;2.85;;;1.75;;
56171;SDS011;42052;41.634;-0.946;2023-04-08T12:38:20;3.80;;;1.65;;
56171;SDS011;42052;41.634;-0.946;2023-04-08T12:41:06;3.65;;;1.70;;
56171;SDS011;42052;41.634;-0.946;2023-04-08T12:43:53;3.00;;;1.70;;
56171;SDS011;42052;41.634;-0.946;2023-04-08T12:46:39;3.25;;;1.60;;
56171;SDS011;42052;41.634;-0.946;2023-04-08T12:49:25;3.22;;;1.40;;
56171;SDS011;42052;41.634;-0.946;2023-04-08T12:52:12;2.50;;;1.40;;
56171;SDS011;42052;41.634;-0.946;2023-04-08T12:54:58;3.10;;;1.40;;
56171;SDS011;42052;41.634;-0.946;2023-04-08T12:57:45;2.90;;;1.50;;
56171;SDS011;42052;41.634;-0.946;2023-04-08T13:00:32;2.92;;;1.60;;
56171;SDS011;42052;41.634;-0.946;2023-04-08T13:03:18;2.83;;;1.58;;
56171;SDS011;42052;41.634;-0.946;2023-04-08T13:06:05;3.63;;;1.77;;
56171;SDS011;42052;41.634;-0.946;2023-04-08T13:08:52;2.65;;;1.60;;
56171;SDS011;42052;41.634;-0.946;2023-04-08T13:11:38;3.13;;;1.58;;
56171;SDS011;42052;41.634;-0.946;2023-04-08T13:14:24;2.25;;;1.40;;
56171;SDS011;42052;41.634;-0.946;2023-04-08T13:17:11;3.28;;;1.73;;
56171;SDS011;42052;41.634;-0.946;2023-04-08T13:19:57;3.58;;;1.80;;
56171;SDS011;42052;41.634;-0.946;2023-04-08T13:22:44;3.17;;;1.42;;
56171;SDS011;42052;41.634;-0.946;2023-04-08T13:25:30;2.25;;;1.52;;
56171;SDS011;42052;41.634;-0.946;2023-04-08T13:28:16;2.95;;;1.48;;
56171;SDS011;42052;41.634;-0.946;2023-04-08T13:31:02;2.53;;;1.58;;
56171;SDS011;42052;41.634;-0.946;2023-04-08T13:33:49;3.13;;;1.42;;
56171;SDS011;42052;41.634;-0.946;2023-04-08T13:36:35;2.85;;;1.60;;
56171;SDS011;42052;41.634;-0.946;2023-04-08T13:39:21;3.63;;;1.60;;
56171;SDS011;42052;41.634;-0.946;2023-04-08T13:42:07;4.90;;;1.48;;
56171;SDS011;42052;41.634;-0.946;2023-04-08T13:44:54;2.95;;;1.27;;
56171;SDS011;42052;41.634;-0.946;2023-04-08T13:47:40;2.72;;;1.45;;
56171;SDS011;42052;41.634;-0.946;2023-04-08T13:50:26;3.55;;;1.30;;
56171;SDS011;42052;41.634;-0.946;2023-04-08T13:53:13;2.05;;;1.30;;
56171;SDS011;42052;41.634;-0.946;2023-04-08T13:55:59;2.67;;;1.58;;
56171;SDS011;42052;41.634;-0.946;2023-04-08T13:58:45;2.38;;;1.20;;
56171;SDS011;42052;41.634;-0.946;2023-04-08T14:01:31;1.88;;;1.30;;
56171;SDS011;42052;41.634;-0.946;2023-04-08T14:04:20;2.78;;;1.23;;
56171;SDS011;42052;41.634;-0.946;2023-04-08T14:07:08;2.78;;;1.50;;
56171;SDS011;42052;41.634;-0.946;2023-04-08T14:09:54;2.67;;;1.30;;
56171;SDS011;42052;41.634;-0.946;2023-04-08T14:12:40;5.50;;;1.42;;
56171;SDS011;42052;41.634;-0.946;2023-04-08T14:15:26;8.18;;;1.50;;
56171;SDS011;42052;41.634;-0.946;2023-04-08T14:18:12;6.38;;;1.80;;
56171;SDS011;42052;41.634;-0.946;2023-04-08T14:21:01;11.57;;;1.60;;
56171;SDS011;42052;41.634;-0.946;2023-04-08T14:23:48;16.55;;;1.77;;
56171;SDS011;42052;41.634;-0.946;2023-04-08T14:26:35;8.68;;;1.55;;
56171;SDS011;42052;41.634;-0.946;2023-04-08T14:29:21;9.60;;;1.73;;
56171;SDS011;42052;41.634;-0.946;2023-04-08T14:32:08;12.10;;;1.60;;
56171;SDS011;42052;41.634;-0.946;2023-04-08T14:34:54;8.35;;;1.80;;
56171;SDS011;42052;41.634;-0.946;2023-04-08T14:37:40;10.25;;;1.48;;
56171;SDS011;42052;41.634;-0.946;2023-04-08T14:40:27;5.97;;;1.80;;
56171;SDS011;42052;41.634;-0.946;2023-04-08T14:43:13;8.93;;;1.42;;
56171;SDS011;42052;41.634;-0.946;2023-04-08T14:45:59;6.43;;;1.67;;
56171;SDS011;42052;41.634;-0.946;2023-04-08T14:48:45;7.10;;;1.65;;
56171;SDS011;42052;41.634;-0.946;2023-04-08T14:51:32;4.05;;;1.40;;
56171;SDS011;42052;41.634;-0.946;2023-04-08T14:54:18;6.63;;;1.52;;
56171;SDS011;42052;41.634;-0.946;2023-04-08T14:57:04;4.70;;;1.50;;
56171;SDS011;42052;41.634;-0.946;2023-04-08T14:59:50;4.03;;;1.50;;
56171;SDS011;42052;41.634;-0.946;2023-04-08T15:02:37;4.88;;;1.42;;
56171;SDS011;42052;41.634;-0.946;2023-04-08T15:05:23;7.50;;;1.58;;
56171;SDS011;42052;41.634;-0.946;2023-04-08T15:08:10;4.22;;;1.50;;
56171;SDS011;42052;41.634;-0.946;2023-04-08T15:10:56;4.72;;;1.20;;
56171;SDS011;42052;41.634;-0.946;2023-04-08T15:13:42;2.75;;;1.17;;
56171;SDS011;42052;41.634;-0.946;2023-04-08T15:16:28;4.90;;;1.33;;
56171;SDS011;42052;41.634;-0.946;2023-04-08T15:19:15;5.55;;;1.50;;
56171;SDS011;42052;41.634;-0.946;2023-04-08T15:22:04;6.80;;;1.40;;
56171;SDS011;42052;41.634;-0.946;2023-04-08T15:24:53;5.78;;;1.48;;
56171;SDS011;42052;41.634;-0.946;2023-04-08T15:27:39;3.33;;;1.38;;
56171;SDS011;42052;41.634;-0.946;2023-04-08T15:30:26;2.75;;;1.20;;
56171;SDS011;42052;41.634;-0.946;2023-04-08T15:33:13;4.03;;;1.35;;
56171;SDS011;42052;41.634;-0.946;2023-04-08T15:35:59;2.35;;;1.08;;
56171;SDS011;42052;41.634;-0.946;2023-04-08T15:38:48;5.07;;;1.17;;
56171;SDS011;42052;41.634;-0.946;2023-04-08T15:41:35;3.78;;;1.17;;
56171;SDS011;42052;41.634;-0.946;2023-04-08T15:44:21;3.13;;;1.40;;
56171;SDS011;42052;41.634;-0.946;2023-04-08T15:47:08;4.03;;;1.35;;
56171;SDS011;42052;41.634;-0.946;2023-04-08T15:49:54;2.83;;;1.08;;
56171;SDS011;42052;41.634;-0.946;2023-04-08T15:52:41;3.80;;;1.10;;
56171;SDS011;42052;41.634;-0.946;2023-04-08T15:55:27;2.97;;;1.20;;
56171;SDS011;42052;41.634;-0.946;2023-04-08T15:58:13;3.10;;;1.10;;
56171;SDS011;42052;41.634;-0.946;2023-04-08T16:01:00;4.22;;;1.45;;
56171;SDS011;42052;41.634;-0.946;2023-04-08T16:03:47;4.28;;;1.20;;
56171;SDS011;42052;41.634;-0.946;2023-04-08T16:06:33;2.33;;;1.10;;
56171;SDS011;42052;41.634;-0.946;2023-04-08T16:09:19;2.55;;;1.17;;
56171;SDS011;42052;41.634;-0.946;2023-04-08T16:12:09;1.92;;;1.10;;
56171;SDS011;42052;41.634;-0.946;2023-04-08T16:14:56;5.28;;;1.38;;
56171;SDS011;42052;41.634;-0.946;2023-04-08T16:17:42;2.78;;;1.05;;
56171;SDS011;42052;41.634;-0.946;2023-04-08T16:20:28;3.33;;;1.00;;
56171;SDS011;42052;41.634;-0.946;2023-04-08T16:23:15;3.25;;;1.00;;
56171;SDS011;42052;41.634;-0.946;2023-04-08T16:26:05;2.63;;;1.08;;
56171;SDS011;42052;41.634;-0.946;2023-04-08T16:28:55;2.08;;;1.00;;
56171;SDS011;42052;41.634;-0.946;2023-04-08T16:31:41;6.53;;;1.25;;
56171;SDS011;42052;41.634;-0.946;2023-04-08T16:34:27;3.70;;;1.02;;
56171;SDS011;42052;41.634;-0.946;2023-04-08T16:37:14;6.13;;;1.20;;
56171;SDS011;42052;41.634;-0.946;2023-04-08T16:40:01;2.28;;;1.00;;
56171;SDS011;42052;41.634;-0.946;2023-04-08T16:42:48;3.03;;;1.00;;